DAH1071 LFMT-DAAG
Flight info
| Callsign | DAH1071 |
|---|---|
| Flight time | 1h 9m |
| Altitude | 33000 |
| Route | PPG DCT KANIG DCT KENAS DCT POS N855 BUYAH |
| Aircraft | A320/M-SDE3FGHIRWY/LB1 |
Departure
| Time | 2026-04-27 14:43 |
|---|---|
| Airport | Montpellier-Méditerranée Airport (LFMT) |
Arrival
| Time | 2026-04-27 15:52 |
|---|---|
| Airport | Houari Boumediene Airport (DAAG) |
| Time | Latitude | Longitude | Altitude | Speed | Heading |
|---|---|---|---|---|---|
| 2026-04-27 14:26 | 43.57956 | 3.95994 | 15 ft | 0 kts | 214° |
| 2026-04-27 14:34 | 43.57970 | 3.96006 | 16 ft | 4 kts | 210° |
| 2026-04-27 14:35 | 43.57994 | 3.96022 | 16 ft | 4 kts | 194° |
| 2026-04-27 14:35 | 43.58018 | 3.96023 | 15 ft | 4 kts | 144° |
| 2026-04-27 14:35 | 43.58025 | 3.96016 | 18 ft | 2 kts | 125° |
| 2026-04-27 14:37 | 43.57998 | 3.96068 | 3 ft | 14 kts | 126° |
| 2026-04-27 14:37 | 43.58008 | 3.96227 | 16 ft | 24 kts | 35° |
| 2026-04-27 14:37 | 43.58011 | 3.96361 | 14 ft | 12 kts | 125° |
| 2026-04-27 14:38 | 43.58009 | 3.96366 | 14 ft | 0 kts | 124° |
| 2026-04-27 14:39 | 43.58008 | 3.96367 | 14 ft | 0 kts | 124° |
| 2026-04-27 14:39 | 43.58001 | 3.96382 | 16 ft | 6 kts | 124° |
| 2026-04-27 14:40 | 43.57944 | 3.96498 | 14 ft | 22 kts | 129° |
| 2026-04-27 14:40 | 43.57829 | 3.96720 | 13 ft | 34 kts | 125° |
| 2026-04-27 14:40 | 43.57731 | 3.96911 | 11 ft | 40 kts | 126° |
| 2026-04-27 14:40 | 43.57545 | 3.97285 | 18 ft | 33 kts | 124° |
| 2026-04-27 14:41 | 43.57459 | 3.97459 | 17 ft | 33 kts | 124° |
| 2026-04-27 14:41 | 43.57325 | 3.97717 | 16 ft | 33 kts | 127° |
| 2026-04-27 14:41 | 43.57197 | 3.97980 | 15 ft | 32 kts | 125° |
| 2026-04-27 14:41 | 43.57313 | 3.98130 | 16 ft | 23 kts | 321° |
| 2026-04-27 14:42 | 43.57407 | 3.97960 | 14 ft | 23 kts | 304° |
| 2026-04-27 14:42 | 43.57582 | 3.97612 | 18 ft | 78 kts | 305° |
| 2026-04-27 14:42 | 43.57852 | 3.97078 | 13 ft | 122 kts | 305° |
| 2026-04-27 14:42 | 43.58428 | 3.95936 | 57 ft | 167 kts | 306° |
| 2026-04-27 14:43 | 43.59069 | 3.94672 | 813 ft | 155 kts | 298° |
| 2026-04-27 14:43 | 43.59665 | 3.93409 | 1415 ft | 162 kts | 288° |
| 2026-04-27 14:43 | 43.59799 | 3.91808 | 1730 ft | 178 kts | 257° |
| 2026-04-27 14:43 | 43.59242 | 3.90209 | 1949 ft | 195 kts | 225° |
| 2026-04-27 14:44 | 43.58029 | 3.89225 | 2177 ft | 218 kts | 191° |
| 2026-04-27 14:44 | 43.56431 | 3.89115 | 2573 ft | 243 kts | 181° |
| 2026-04-27 14:44 | 43.54679 | 3.89098 | 3113 ft | 259 kts | 181° |
| 2026-04-27 14:44 | 43.52846 | 3.89084 | 3887 ft | 266 kts | 180° |
| 2026-04-27 14:45 | 43.50975 | 3.89065 | 4726 ft | 272 kts | 180° |
| 2026-04-27 14:45 | 43.49091 | 3.89040 | 5541 ft | 277 kts | 182° |
| 2026-04-27 14:45 | 43.47206 | 3.88513 | 6365 ft | 279 kts | 208° |
| 2026-04-27 14:45 | 43.45696 | 3.86862 | 7179 ft | 280 kts | 228° |
| 2026-04-27 14:46 | 43.44342 | 3.84920 | 8007 ft | 282 kts | 228° |
| 2026-04-27 14:46 | 43.42985 | 3.82946 | 8816 ft | 286 kts | 229° |
| 2026-04-27 14:46 | 43.41612 | 3.80946 | 9634 ft | 289 kts | 229° |
| 2026-04-27 14:46 | 43.40219 | 3.78924 | 10388 ft | 294 kts | 229° |
| 2026-04-27 14:47 | 43.38761 | 3.76814 | 10671 ft | 316 kts | 227° |
| 2026-04-27 14:47 | 43.37200 | 3.74561 | 11011 ft | 333 kts | 227° |
| 2026-04-27 14:47 | 43.35586 | 3.72243 | 11662 ft | 338 kts | 228° |
| 2026-04-27 14:47 | 43.33951 | 3.69900 | 12406 ft | 341 kts | 227° |
| 2026-04-27 14:48 | 43.32325 | 3.67572 | 13112 ft | 344 kts | 227° |
| 2026-04-27 14:48 | 43.28977 | 3.62790 | 14430 ft | 350 kts | 226° |
| 2026-04-27 14:48 | 43.27281 | 3.60373 | 15075 ft | 352 kts | 227° |
| 2026-04-27 14:49 | 43.25574 | 3.57939 | 15680 ft | 356 kts | 227° |
| 2026-04-27 14:49 | 43.23852 | 3.55480 | 16275 ft | 359 kts | 227° |
| 2026-04-27 14:49 | 43.22116 | 3.53002 | 16905 ft | 362 kts | 226° |
| 2026-04-27 14:49 | 43.20364 | 3.50506 | 17531 ft | 364 kts | 226° |
| 2026-04-27 14:50 | 43.18603 | 3.47999 | 18135 ft | 367 kts | 226° |
| 2026-04-27 14:50 | 43.16822 | 3.45463 | 18631 ft | 371 kts | 226° |
| 2026-04-27 14:50 | 43.15044 | 3.42934 | 19144 ft | 374 kts | 226° |
| 2026-04-27 14:50 | 43.13235 | 3.40363 | 19641 ft | 377 kts | 226° |
| 2026-04-27 14:51 | 43.11402 | 3.37761 | 20120 ft | 381 kts | 226° |
| 2026-04-27 14:51 | 43.09554 | 3.35148 | 20610 ft | 384 kts | 226° |
| 2026-04-27 14:51 | 43.07691 | 3.32517 | 21114 ft | 386 kts | 226° |
| 2026-04-27 14:51 | 43.05814 | 3.29869 | 21571 ft | 389 kts | 226° |
| 2026-04-27 14:52 | 43.03918 | 3.27197 | 22019 ft | 393 kts | 226° |
| 2026-04-27 14:52 | 43.02008 | 3.24507 | 22497 ft | 395 kts | 226° |
| 2026-04-27 14:52 | 43.00091 | 3.21803 | 22955 ft | 398 kts | 226° |
| 2026-04-27 14:52 | 42.98152 | 3.19071 | 23400 ft | 402 kts | 226° |
| 2026-04-27 14:53 | 42.96201 | 3.16323 | 23789 ft | 405 kts | 227° |
| 2026-04-27 14:53 | 42.94263 | 3.13593 | 24150 ft | 408 kts | 227° |
| 2026-04-27 14:53 | 42.92283 | 3.10808 | 24512 ft | 410 kts | 226° |
| 2026-04-27 14:53 | 42.90288 | 3.08012 | 24884 ft | 412 kts | 226° |
| 2026-04-27 14:54 | 42.88284 | 3.05208 | 25237 ft | 414 kts | 226° |
| 2026-04-27 14:54 | 42.86274 | 3.02394 | 25664 ft | 414 kts | 226° |
| 2026-04-27 14:54 | 42.84263 | 2.99580 | 26058 ft | 415 kts | 227° |
| 2026-04-27 14:54 | 42.82239 | 2.96750 | 26439 ft | 417 kts | 227° |
| 2026-04-27 14:55 | 42.80192 | 2.93943 | 26769 ft | 420 kts | 223° |
| 2026-04-27 14:55 | 42.77823 | 2.91604 | 27081 ft | 424 kts | 210° |
| 2026-04-27 14:55 | 42.75100 | 2.90030 | 27416 ft | 428 kts | 197° |
| 2026-04-27 14:55 | 42.72152 | 2.89302 | 27740 ft | 433 kts | 184° |
| 2026-04-27 14:56 | 42.69140 | 2.89473 | 28059 ft | 437 kts | 171° |
| 2026-04-27 14:56 | 42.66225 | 2.90488 | 28351 ft | 441 kts | 164° |
| 2026-04-27 14:56 | 42.63290 | 2.91750 | 28683 ft | 443 kts | 163° |
| 2026-04-27 14:56 | 42.60347 | 2.93020 | 28995 ft | 446 kts | 163° |
| 2026-04-27 14:57 | 42.57383 | 2.94299 | 29280 ft | 448 kts | 163° |
| 2026-04-27 14:57 | 42.54402 | 2.95584 | 29607 ft | 450 kts | 163° |
| 2026-04-27 14:57 | 42.51411 | 2.96870 | 29925 ft | 452 kts | 163° |
| 2026-04-27 14:57 | 42.48374 | 2.98015 | 30196 ft | 454 kts | 169° |
| 2026-04-27 14:58 | 42.45250 | 2.98558 | 30452 ft | 454 kts | 178° |
| 2026-04-27 14:58 | 42.42093 | 2.98804 | 30688 ft | 455 kts | 178° |
| 2026-04-27 14:58 | 42.38918 | 2.99055 | 30935 ft | 457 kts | 178° |
| 2026-04-27 14:58 | 42.35740 | 2.99314 | 31188 ft | 458 kts | 177° |
| 2026-04-27 14:59 | 42.32563 | 2.99576 | 31502 ft | 457 kts | 177° |
| 2026-04-27 14:59 | 42.29396 | 2.99837 | 31876 ft | 456 kts | 178° |
| 2026-04-27 14:59 | 42.26231 | 3.00098 | 32216 ft | 455 kts | 178° |
| 2026-04-27 14:59 | 42.23119 | 3.00351 | 32547 ft | 454 kts | 178° |
| 2026-04-27 15:00 | 42.19973 | 3.00603 | 32892 ft | 453 kts | 178° |
| 2026-04-27 15:00 | 42.16822 | 3.00855 | 33085 ft | 455 kts | 178° |
| 2026-04-27 15:00 | 42.10420 | 3.01377 | 33114 ft | 467 kts | 178° |
| 2026-04-27 15:01 | 42.03873 | 3.01916 | 33104 ft | 473 kts | 178° |
| 2026-04-27 15:01 | 41.97291 | 3.02446 | 33106 ft | 474 kts | 178° |
| 2026-04-27 15:02 | 41.90704 | 3.02977 | 33107 ft | 475 kts | 177° |
| 2026-04-27 15:02 | 41.84149 | 3.03500 | 33105 ft | 475 kts | 177° |
| 2026-04-27 15:03 | 41.77548 | 3.04017 | 33104 ft | 475 kts | 177° |
| 2026-04-27 15:03 | 41.70945 | 3.04556 | 33107 ft | 475 kts | 177° |
| 2026-04-27 15:04 | 41.64343 | 3.05092 | 33111 ft | 475 kts | 177° |
| 2026-04-27 15:04 | 41.57741 | 3.05622 | 33105 ft | 476 kts | 177° |
| 2026-04-27 15:05 | 41.51179 | 3.06145 | 33098 ft | 476 kts | 177° |
| 2026-04-27 15:05 | 41.44554 | 3.06665 | 33104 ft | 477 kts | 177° |
| 2026-04-27 15:06 | 41.37935 | 3.07197 | 33104 ft | 477 kts | 177° |
| 2026-04-27 15:06 | 41.31306 | 3.07732 | 33105 ft | 477 kts | 177° |
| 2026-04-27 15:07 | 41.24686 | 3.08246 | 33112 ft | 477 kts | 177° |
| 2026-04-27 15:07 | 41.18069 | 3.08758 | 33112 ft | 476 kts | 177° |
| 2026-04-27 15:08 | 41.11451 | 3.09280 | 33112 ft | 476 kts | 177° |
| 2026-04-27 15:08 | 41.04879 | 3.09798 | 33113 ft | 476 kts | 177° |
| 2026-04-27 15:09 | 40.98276 | 3.10310 | 33115 ft | 475 kts | 177° |
| 2026-04-27 15:09 | 40.91672 | 3.10829 | 33113 ft | 475 kts | 177° |
| 2026-04-27 15:10 | 40.85075 | 3.11351 | 33109 ft | 475 kts | 177° |
| 2026-04-27 15:10 | 40.78484 | 3.11866 | 33111 ft | 474 kts | 177° |
| 2026-04-27 15:11 | 40.71898 | 3.12379 | 33110 ft | 474 kts | 177° |
| 2026-04-27 15:11 | 40.65360 | 3.12888 | 33108 ft | 474 kts | 177° |
| 2026-04-27 15:12 | 40.58787 | 3.13387 | 33104 ft | 473 kts | 177° |
| 2026-04-27 15:12 | 40.52204 | 3.13886 | 33100 ft | 473 kts | 177° |
| 2026-04-27 15:13 | 40.45630 | 3.13878 | 33098 ft | 473 kts | 182° |
| 2026-04-27 15:13 | 40.39049 | 3.13581 | 33109 ft | 473 kts | 182° |
| 2026-04-27 15:14 | 40.32482 | 3.13274 | 33111 ft | 472 kts | 182° |
| 2026-04-27 15:14 | 40.25914 | 3.12968 | 33110 ft | 472 kts | 182° |
| 2026-04-27 15:15 | 40.19357 | 3.12673 | 33109 ft | 472 kts | 182° |
| 2026-04-27 15:15 | 40.12796 | 3.12371 | 33111 ft | 471 kts | 182° |
| 2026-04-27 15:16 | 40.06289 | 3.12071 | 33104 ft | 471 kts | 182° |
| 2026-04-27 15:16 | 39.99731 | 3.11773 | 33105 ft | 471 kts | 182° |
| 2026-04-27 15:17 | 39.93177 | 3.11481 | 33107 ft | 471 kts | 182° |
| 2026-04-27 15:17 | 39.86618 | 3.11420 | 33106 ft | 471 kts | 180° |
| 2026-04-27 15:18 | 39.80064 | 3.11651 | 33107 ft | 472 kts | 179° |
| 2026-04-27 15:18 | 39.73500 | 3.11887 | 33095 ft | 471 kts | 180° |
| 2026-04-27 15:19 | 39.66943 | 3.12029 | 33106 ft | 471 kts | 180° |
| 2026-04-27 15:19 | 39.60380 | 3.12130 | 33104 ft | 472 kts | 180° |
| 2026-04-27 15:20 | 39.53856 | 3.12241 | 33102 ft | 472 kts | 180° |
| 2026-04-27 15:20 | 39.47287 | 3.12376 | 33100 ft | 472 kts | 180° |
| 2026-04-27 15:21 | 39.40715 | 3.12523 | 33107 ft | 472 kts | 180° |
| 2026-04-27 15:21 | 39.34139 | 3.12662 | 33110 ft | 473 kts | 180° |
| 2026-04-27 15:22 | 39.27570 | 3.12793 | 33101 ft | 472 kts | 181° |
| 2026-04-27 15:22 | 39.20990 | 3.12926 | 33100 ft | 472 kts | 181° |
| 2026-04-27 15:23 | 39.14422 | 3.13057 | 33100 ft | 472 kts | 181° |
| 2026-04-27 15:23 | 39.07894 | 3.13185 | 33095 ft | 472 kts | 181° |
| 2026-04-27 15:24 | 39.01326 | 3.13328 | 33105 ft | 472 kts | 181° |
| 2026-04-27 15:24 | 38.94753 | 3.13468 | 33104 ft | 472 kts | 181° |
| 2026-04-27 15:25 | 38.88189 | 3.13599 | 33100 ft | 472 kts | 181° |
| 2026-04-27 15:25 | 38.81630 | 3.13720 | 33089 ft | 472 kts | 181° |
| 2026-04-27 15:26 | 38.75068 | 3.13853 | 33092 ft | 472 kts | 181° |
| 2026-04-27 15:26 | 38.68508 | 3.13987 | 33092 ft | 471 kts | 181° |
| 2026-04-27 15:27 | 38.61990 | 3.14115 | 33093 ft | 471 kts | 181° |
| 2026-04-27 15:27 | 38.55451 | 3.14243 | 33092 ft | 461 kts | 181° |
| 2026-04-27 15:28 | 38.52309 | 3.14312 | 33090 ft | 444 kts | 182° |
| 2026-04-27 15:28 | 38.49254 | 3.14381 | 33092 ft | 436 kts | 182° |
| 2026-04-27 15:28 | 38.43218 | 3.14506 | 33092 ft | 432 kts | 182° |
| 2026-04-27 15:29 | 38.37207 | 3.14619 | 33090 ft | 432 kts | 182° |
| 2026-04-27 15:29 | 38.31194 | 3.14745 | 33090 ft | 432 kts | 182° |
| 2026-04-27 15:30 | 38.25179 | 3.14869 | 33089 ft | 432 kts | 182° |
| 2026-04-27 15:30 | 38.19173 | 3.14987 | 33082 ft | 432 kts | 182° |
| 2026-04-27 15:31 | 38.13068 | 3.15096 | 33078 ft | 445 kts | 183° |
| 2026-04-27 15:31 | 38.07028 | 3.14047 | 32416 ft | 438 kts | 194° |
| 2026-04-27 15:32 | 38.04054 | 3.13266 | 31794 ft | 435 kts | 195° |
| 2026-04-27 15:32 | 38.01097 | 3.12479 | 31224 ft | 432 kts | 195° |
| 2026-04-27 15:32 | 37.98169 | 3.11699 | 30678 ft | 429 kts | 194° |
| 2026-04-27 15:32 | 37.95269 | 3.10932 | 30012 ft | 423 kts | 194° |
| 2026-04-27 15:33 | 37.92406 | 3.10180 | 28988 ft | 418 kts | 194° |
| 2026-04-27 15:33 | 37.89576 | 3.09438 | 28031 ft | 412 kts | 194° |
| 2026-04-27 15:33 | 37.86813 | 3.08715 | 27451 ft | 398 kts | 194° |
| 2026-04-27 15:33 | 37.84159 | 3.08024 | 27046 ft | 381 kts | 194° |
| 2026-04-27 15:34 | 37.81616 | 3.07362 | 26631 ft | 367 kts | 194° |
| 2026-04-27 15:34 | 37.79143 | 3.06716 | 26223 ft | 361 kts | 194° |
| 2026-04-27 15:34 | 37.76693 | 3.06070 | 25806 ft | 358 kts | 194° |
| 2026-04-27 15:34 | 37.74299 | 3.05440 | 25399 ft | 356 kts | 194° |
| 2026-04-27 15:35 | 37.71880 | 3.04809 | 24974 ft | 354 kts | 194° |
| 2026-04-27 15:35 | 37.69475 | 3.04187 | 24558 ft | 352 kts | 194° |
| 2026-04-27 15:35 | 37.67077 | 3.03564 | 24109 ft | 351 kts | 194° |
| 2026-04-27 15:35 | 37.64698 | 3.02943 | 23698 ft | 350 kts | 195° |
| 2026-04-27 15:36 | 37.62316 | 3.02321 | 23219 ft | 348 kts | 194° |
| 2026-04-27 15:36 | 37.59949 | 3.01705 | 22790 ft | 346 kts | 194° |
| 2026-04-27 15:36 | 37.57603 | 3.01095 | 22362 ft | 343 kts | 194° |
| 2026-04-27 15:36 | 37.55273 | 3.00489 | 21936 ft | 341 kts | 194° |
| 2026-04-27 15:37 | 37.52953 | 2.99887 | 21534 ft | 339 kts | 194° |
| 2026-04-27 15:37 | 37.50650 | 2.99292 | 21128 ft | 337 kts | 194° |
| 2026-04-27 15:37 | 37.48358 | 2.98699 | 20724 ft | 335 kts | 194° |
| 2026-04-27 15:37 | 37.46107 | 2.98117 | 20328 ft | 334 kts | 194° |
| 2026-04-27 15:38 | 37.43838 | 2.97530 | 19934 ft | 333 kts | 194° |
| 2026-04-27 15:38 | 37.41572 | 2.96941 | 19536 ft | 332 kts | 193° |
| 2026-04-27 15:38 | 37.39317 | 2.96353 | 19144 ft | 331 kts | 194° |
| 2026-04-27 15:38 | 37.37066 | 2.95771 | 18755 ft | 330 kts | 194° |
| 2026-04-27 15:39 | 37.34817 | 2.95191 | 18363 ft | 330 kts | 194° |
| 2026-04-27 15:39 | 37.32569 | 2.94610 | 17940 ft | 329 kts | 193° |
| 2026-04-27 15:39 | 37.30333 | 2.94035 | 17552 ft | 327 kts | 193° |
| 2026-04-27 15:39 | 37.28110 | 2.93467 | 17174 ft | 325 kts | 194° |
| 2026-04-27 15:40 | 37.25900 | 2.92899 | 16798 ft | 323 kts | 194° |
| 2026-04-27 15:40 | 37.23702 | 2.92331 | 16427 ft | 322 kts | 194° |
| 2026-04-27 15:40 | 37.21543 | 2.91772 | 16065 ft | 320 kts | 193° |
| 2026-04-27 15:40 | 37.19370 | 2.91210 | 15698 ft | 319 kts | 194° |
| 2026-04-27 15:41 | 37.17200 | 2.90651 | 15339 ft | 318 kts | 193° |
| 2026-04-27 15:41 | 37.15031 | 2.90100 | 14976 ft | 317 kts | 193° |
| 2026-04-27 15:41 | 37.12875 | 2.89551 | 14611 ft | 316 kts | 193° |
| 2026-04-27 15:41 | 37.10726 | 2.88999 | 14253 ft | 315 kts | 193° |
| 2026-04-27 15:42 | 37.08580 | 2.88450 | 13880 ft | 314 kts | 193° |
| 2026-04-27 15:42 | 37.06443 | 2.87903 | 13494 ft | 313 kts | 193° |
| 2026-04-27 15:42 | 37.04318 | 2.87358 | 13128 ft | 311 kts | 192° |
| 2026-04-27 15:42 | 37.02211 | 2.86819 | 12766 ft | 308 kts | 193° |
| 2026-04-27 15:43 | 37.00119 | 2.86283 | 12401 ft | 306 kts | 193° |
| 2026-04-27 15:43 | 36.98062 | 2.85757 | 12041 ft | 304 kts | 193° |
| 2026-04-27 15:43 | 36.95997 | 2.85228 | 11676 ft | 302 kts | 193° |
| 2026-04-27 15:43 | 36.93945 | 2.84704 | 11308 ft | 301 kts | 193° |
| 2026-04-27 15:44 | 36.91900 | 2.84183 | 10943 ft | 299 kts | 194° |
| 2026-04-27 15:44 | 36.89863 | 2.83664 | 10595 ft | 297 kts | 194° |
| 2026-04-27 15:44 | 36.87833 | 2.83148 | 10196 ft | 297 kts | 194° |
| 2026-04-27 15:44 | 36.85818 | 2.82633 | 9795 ft | 296 kts | 194° |
| 2026-04-27 15:45 | 36.83806 | 2.82119 | 9410 ft | 294 kts | 193° |
| 2026-04-27 15:45 | 36.81810 | 2.81610 | 9021 ft | 292 kts | 193° |
| 2026-04-27 15:45 | 36.79826 | 2.81108 | 8637 ft | 291 kts | 192° |
| 2026-04-27 15:45 | 36.77860 | 2.80613 | 8243 ft | 293 kts | 192° |
| 2026-04-27 15:46 | 36.75848 | 2.80104 | 7839 ft | 298 kts | 192° |
| 2026-04-27 15:46 | 36.73783 | 2.79613 | 7412 ft | 305 kts | 187° |
| 2026-04-27 15:46 | 36.71718 | 2.79961 | 6967 ft | 298 kts | 155° |
| 2026-04-27 15:46 | 36.70161 | 2.81534 | 6481 ft | 287 kts | 124° |
| 2026-04-27 15:47 | 36.69512 | 2.83847 | 5714 ft | 286 kts | 91° |
| 2026-04-27 15:47 | 36.69634 | 2.86306 | 4990 ft | 283 kts | 85° |
| 2026-04-27 15:47 | 36.69748 | 2.88744 | 4386 ft | 278 kts | 86° |
| 2026-04-27 15:47 | 36.69783 | 2.91114 | 4069 ft | 270 kts | 90° |
| 2026-04-27 15:48 | 36.69736 | 2.93419 | 3727 ft | 260 kts | 91° |
| 2026-04-27 15:48 | 36.69682 | 2.95609 | 3403 ft | 246 kts | 91° |
| 2026-04-27 15:48 | 36.69636 | 2.97666 | 3104 ft | 235 kts | 91° |
| 2026-04-27 15:49 | 36.69552 | 3.01571 | 2504 ft | 214 kts | 89° |
| 2026-04-27 15:49 | 36.69513 | 3.03361 | 2233 ft | 201 kts | 90° |
| 2026-04-27 15:49 | 36.69476 | 3.05019 | 1981 ft | 182 kts | 89° |
| 2026-04-27 15:49 | 36.69442 | 3.06523 | 1776 ft | 164 kts | 88° |
| 2026-04-27 15:50 | 36.69411 | 3.07879 | 1538 ft | 149 kts | 88° |
| 2026-04-27 15:50 | 36.69383 | 3.09162 | 1352 ft | 146 kts | 86° |
| 2026-04-27 15:50 | 36.69356 | 3.10422 | 1153 ft | 146 kts | 90° |
| 2026-04-27 15:50 | 36.69328 | 3.11682 | 958 ft | 145 kts | 89° |
| 2026-04-27 15:51 | 36.69300 | 3.12934 | 771 ft | 144 kts | 90° |
| 2026-04-27 15:51 | 36.69272 | 3.14150 | 581 ft | 140 kts | 88° |
| 2026-04-27 15:51 | 36.69246 | 3.15356 | 380 ft | 138 kts | 90° |
| 2026-04-27 15:51 | 36.69215 | 3.16543 | 209 ft | 135 kts | 88° |
| 2026-04-27 15:52 | 36.69190 | 3.17691 | 84 ft | 126 kts | 89° |
| 2026-04-27 15:52 | 36.69169 | 3.18662 | 78 ft | 91 kts | 92° |
| 2026-04-27 15:52 | 36.69156 | 3.19233 | 75 ft | 44 kts | 91° |
| 2026-04-27 15:52 | 36.69148 | 3.19586 | 66 ft | 39 kts | 92° |
| 2026-04-27 15:53 | 36.69212 | 3.19896 | 65 ft | 37 kts | 66° |
| 2026-04-27 15:53 | 36.69308 | 3.20157 | 71 ft | 22 kts | 104° |
| 2026-04-27 15:53 | 36.69338 | 3.20285 | 64 ft | 19 kts | 17° |
| 2026-04-27 15:53 | 36.69437 | 3.20303 | 61 ft | 14 kts | 40° |
| 2026-04-27 15:54 | 36.69472 | 3.20358 | 67 ft | 1 kts | 44° |
| 2026-04-27 15:54 | 36.69512 | 3.20363 | 70 ft | 10 kts | 13° |
| 2026-04-27 15:54 | 36.69595 | 3.20355 | 67 ft | 7 kts | 32° |
| 2026-04-27 15:54 | 36.69637 | 3.20324 | 64 ft | 7 kts | 265° |
| 2026-04-27 15:55 | 36.69637 | 3.20290 | 67 ft | 0 kts | 272° |
| 2026-04-27 15:55 | 36.69637 | 3.20288 | 68 ft | 0 kts | 270° |
| 2026-04-27 15:57 | 36.69637 | 3.20289 | 68 ft | 0 kts | 270° |